VTPH/HHQ METAR and TAF weather

Enter ICAO airport designator
Station Type Date Time Source
VTPH METAR 2019/06/18 11:00 UTC NOAA

VTPH 181100Z VRB02KT 9999 SCT040 29/24 Q1006 NOSIG


Station Type Date Time Source
VTPH Decoded METAR 2019/06/18 11:00 UTC NOAA

Hua Hin, Thailand (VTPH) 12-35N 099-57E 6M
Jun 18, 2019 - 07:00 AM EDT / 2019.06.18 1100 UTC
Wind: Variable at 2 MPH (2 KT):0
Visibility: greater than 7 mile(s):0
Sky conditions: partly cloudy
Temperature: 84 F (29 C)
Dew Point: 75 F (24 C)
Relative Humidity: 74%
Pressure (altimeter): 29.71 in. Hg (1006 hPa)
ob: VTPH 181100Z VRB02KT 9999 SCT040 29/24 Q1006 NOSIG
cycle: 11

Station Type Date Time Source
VTPH TAF 2019/06/18 12:00 UTC NOAA

TAF VTPH 181100Z 1812/1912 VRB03KT 9000 FEW020 SCT100
BECMG 1902/1904 23005KT
TEMPO 1906/1912 VRB12KT 5000 TSRA FEW018CB SCT030 BKN100

Example: see airport list